sensor_id;sensor_type;location;lat;lon;timestamp;pressure;altitude;pressure_sealevel;temperature;humidity
76108;BME280;64834;52.516;10.528;2023-11-21T00:02:18;100240.75;;;7.90;100.00
76108;BME280;64834;52.516;10.528;2023-11-21T00:04:43;100245.78;;;7.87;100.00
76108;BME280;64834;52.516;10.528;2023-11-21T00:07:09;100251.78;;;7.85;100.00
76108;BME280;64834;52.516;10.528;2023-11-21T00:09:34;100243.88;;;7.84;100.00
76108;BME280;64834;52.516;10.528;2023-11-21T00:12:01;100245.59;;;7.83;100.00
76108;BME280;64834;52.516;10.528;2023-11-21T00:14:27;100251.78;;;7.85;100.00
76108;BME280;64834;52.516;10.528;2023-11-21T00:16:52;100258.69;;;7.85;100.00
76108;BME280;64834;52.516;10.528;2023-11-21T00:19:18;100251.53;;;7.81;100.00
76108;BME280;64834;52.516;10.528;2023-11-21T00:21:43;100253.94;;;7.78;100.00
76108;BME280;64834;52.516;10.528;2023-11-21T00:24:11;100253.03;;;7.77;100.00
76108;BME280;64834;52.516;10.528;2023-11-21T00:26:39;100267.69;;;7.75;100.00
76108;BME280;64834;52.516;10.528;2023-11-21T00:29:04;100257.19;;;7.74;100.00
76108;BME280;64834;52.516;10.528;2023-11-21T00:31:33;100262.41;;;7.74;100.00
76108;BME280;64834;52.516;10.528;2023-11-21T00:33:58;100257.97;;;7.73;100.00
76108;BME280;64834;52.516;10.528;2023-11-21T00:36:24;100263.09;;;7.71;100.00
76108;BME280;64834;52.516;10.528;2023-11-21T00:38:51;100261.31;;;7.70;100.00
76108;BME280;64834;52.516;10.528;2023-11-21T00:41:16;100266.50;;;7.70;100.00
76108;BME280;64834;52.516;10.528;2023-11-21T00:43:41;100265.53;;;7.68;100.00
76108;BME280;64834;52.516;10.528;2023-11-21T00:46:07;100264.63;;;7.68;100.00
76108;BME280;64834;52.516;10.528;2023-11-21T00:48:33;100268.84;;;7.66;100.00
76108;BME280;64834;52.516;10.528;2023-11-21T00:50:58;100267.03;;;7.65;100.00
76108;BME280;64834;52.516;10.528;2023-11-21T00:53:23;100267.84;;;7.64;100.00
76108;BME280;64834;52.516;10.528;2023-11-21T00:55:49;100269.72;;;7.66;100.00
76108;BME280;64834;52.516;10.528;2023-11-21T00:58:14;100261.56;;;7.60;100.00
76108;BME280;64834;52.516;10.528;2023-11-21T01:00:39;100271.34;;;7.64;100.00
76108;BME280;64834;52.516;10.528;2023-11-21T01:03:05;100269.56;;;7.63;100.00
76108;BME280;64834;52.516;10.528;2023-11-21T01:05:30;100266.88;;;7.62;100.00
76108;BME280;64834;52.516;10.528;2023-11-21T01:07:56;100277.28;;;7.62;100.00
76108;BME280;64834;52.516;10.528;2023-11-21T01:10:21;100272.25;;;7.65;100.00
76108;BME280;64834;52.516;10.528;2023-11-21T01:12:46;100275.75;;;7.65;100.00
76108;BME280;64834;52.516;10.528;2023-11-21T01:15:12;100279.16;;;7.64;100.00
76108;BME280;64834;52.516;10.528;2023-11-21T01:17:38;100283.56;;;7.65;100.00
76108;BME280;64834;52.516;10.528;2023-11-21T01:20:04;100280.97;;;7.65;100.00
76108;BME280;64834;52.516;10.528;2023-11-21T01:22:36;100279.25;;;7.66;100.00
76108;BME280;64834;52.516;10.528;2023-11-21T01:25:01;100288.16;;;7.69;100.00
76108;BME280;64834;52.516;10.528;2023-11-21T01:27:29;100287.19;;;7.67;100.00
76108;BME280;64834;52.516;10.528;2023-11-21T01:29:54;100286.44;;;7.70;100.00
76108;BME280;64834;52.516;10.528;2023-11-21T01:32:20;100289.06;;;7.70;100.00
76108;BME280;64834;52.516;10.528;2023-11-21T01:34:45;100296.16;;;7.72;100.00
76108;BME280;64834;52.516;10.528;2023-11-21T01:37:10;100295.38;;;7.73;100.00
76108;BME280;64834;52.516;10.528;2023-11-21T01:39:37;100300.66;;;7.75;100.00
76108;BME280;64834;52.516;10.528;2023-11-21T01:42:04;100290.16;;;7.73;100.00
76108;BME280;64834;52.516;10.528;2023-11-21T01:44:30;100298.94;;;7.75;100.00
76108;BME280;64834;52.516;10.528;2023-11-21T01:46:56;100296.06;;;7.71;100.00
76108;BME280;64834;52.516;10.528;2023-11-21T01:49:23;100302.00;;;7.68;100.00
76108;BME280;64834;52.516;10.528;2023-11-21T01:51:49;100300.56;;;7.73;100.00
76108;BME280;64834;52.516;10.528;2023-11-21T01:54:16;100311.00;;;7.73;100.00
76108;BME280;64834;52.516;10.528;2023-11-21T01:56:44;100305.78;;;7.73;100.00
76108;BME280;64834;52.516;10.528;2023-11-21T01:59:12;100314.50;;;7.74;100.00
76108;BME280;64834;52.516;10.528;2023-11-21T02:01:39;100314.28;;;7.71;100.00
76108;BME280;64834;52.516;10.528;2023-11-21T02:04:04;100320.22;;;7.68;100.00
76108;BME280;64834;52.516;10.528;2023-11-21T02:06:29;100322.81;;;7.68;100.00
76108;BME280;64834;52.516;10.528;2023-11-21T02:08:56;100321.03;;;7.67;100.00
76108;BME280;64834;52.516;10.528;2023-11-21T02:11:21;100318.50;;;7.69;100.00
76108;BME280;64834;52.516;10.528;2023-11-21T02:13:46;100331.44;;;7.67;100.00
76108;BME280;64834;52.516;10.528;2023-11-21T02:16:12;100324.63;;;7.69;100.00
76108;BME280;64834;52.516;10.528;2023-11-21T02:18:38;100325.31;;;7.67;100.00
76108;BME280;64834;52.516;10.528;2023-11-21T02:21:04;100320.09;;;7.67;100.00
76108;BME280;64834;52.516;10.528;2023-11-21T02:23:30;100320.84;;;7.64;100.00
76108;BME280;64834;52.516;10.528;2023-11-21T02:25:55;100322.25;;;7.59;100.00
76108;BME280;64834;52.516;10.528;2023-11-21T02:28:21;100335.38;;;7.61;100.00
76108;BME280;64834;52.516;10.528;2023-11-21T02:30:51;100335.38;;;7.61;100.00
76108;BME280;64834;52.516;10.528;2023-11-21T02:33:21;100338.25;;;7.65;100.00
76108;BME280;64834;52.516;10.528;2023-11-21T02:35:46;100338.16;;;7.64;100.00
76108;BME280;64834;52.516;10.528;2023-11-21T02:38:12;100340.47;;;7.59;100.00
76108;BME280;64834;52.516;10.528;2023-11-21T02:40:37;100341.97;;;7.69;100.00
76108;BME280;64834;52.516;10.528;2023-11-21T02:43:02;100342.25;;;7.73;100.00
76108;BME280;64834;52.516;10.528;2023-11-21T02:45:31;100340.53;;;7.74;100.00
76108;BME280;64834;52.516;10.528;2023-11-21T02:47:57;100341.44;;;7.74;100.00
76108;BME280;64834;52.516;10.528;2023-11-21T02:50:23;100344.94;;;7.75;100.00
76108;BME280;64834;52.516;10.528;2023-11-21T02:52:48;100353.44;;;7.72;100.00
76108;BME280;64834;52.516;10.528;2023-11-21T02:55:14;100345.44;;;7.69;100.00
76108;BME280;64834;52.516;10.528;2023-11-21T02:57:39;100343.84;;;7.71;100.00
76108;BME280;64834;52.516;10.528;2023-11-21T03:00:05;100346.34;;;7.70;100.00
76108;BME280;64834;52.516;10.528;2023-11-21T03:02:33;100350.94;;;7.74;100.00
76108;BME280;64834;52.516;10.528;2023-11-21T03:05:02;100350.16;;;7.75;100.00
76108;BME280;64834;52.516;10.528;2023-11-21T03:07:27;100354.63;;;7.77;100.00
76108;BME280;64834;52.516;10.528;2023-11-21T03:09:52;100361.38;;;7.74;100.00
76108;BME280;64834;52.516;10.528;2023-11-21T03:12:18;100356.03;;;7.72;100.00
76108;BME280;64834;52.516;10.528;2023-11-21T03:14:44;100355.16;;;7.72;100.00
76108;BME280;64834;52.516;10.528;2023-11-21T03:17:10;100354.47;;;7.74;100.00
76108;BME280;64834;52.516;10.528;2023-11-21T03:19:35;100355.53;;;7.78;100.00
76108;BME280;64834;52.516;10.528;2023-11-21T03:22:00;100363.09;;;7.73;100.00
76108;BME280;64834;52.516;10.528;2023-11-21T03:24:26;100366.47;;;7.72;100.00
76108;BME280;64834;52.516;10.528;2023-11-21T03:26:51;100369.19;;;7.74;100.00
76108;BME280;64834;52.516;10.528;2023-11-21T03:29:17;100367.47;;;7.74;100.00
76108;BME280;64834;52.516;10.528;2023-11-21T03:31:42;100366.47;;;7.72;100.00
76108;BME280;64834;52.516;10.528;2023-11-21T03:34:14;100369.34;;;7.77;100.00
76108;BME280;64834;52.516;10.528;2023-11-21T03:36:39;100375.97;;;7.72;100.00
76108;BME280;64834;52.516;10.528;2023-11-21T03:39:05;100386.69;;;7.76;100.00
76108;BME280;64834;52.516;10.528;2023-11-21T03:41:30;100383.78;;;7.72;100.00
76108;BME280;64834;52.516;10.528;2023-11-21T03:43:55;100395.91;;;7.71;100.00
76108;BME280;64834;52.516;10.528;2023-11-21T03:46:21;100379.47;;;7.72;100.00
76108;BME280;64834;52.516;10.528;2023-11-21T03:48:46;100382.97;;;7.73;100.00
76108;BME280;64834;52.516;10.528;2023-11-21T03:51:11;100394.66;;;7.65;100.00
76108;BME280;64834;52.516;10.528;2023-11-21T03:53:37;100401.94;;;7.70;100.00
76108;BME280;64834;52.516;10.528;2023-11-21T03:56:02;100400.63;;;7.77;100.00
76108;BME280;64834;52.516;10.528;2023-11-21T03:58:29;100402.41;;;7.78;100.00
76108;BME280;64834;52.516;10.528;2023-11-21T04:00:54;100410.34;;;7.79;100.00
76108;BME280;64834;52.516;10.528;2023-11-21T04:03:19;100408.50;;;7.78;100.00
76108;BME280;64834;52.516;10.528;2023-11-21T04:05:45;100421.06;;;7.71;100.00
76108;BME280;64834;52.516;10.528;2023-11-21T04:08:11;100419.78;;;7.64;100.00
76108;BME280;64834;52.516;10.528;2023-11-21T04:10:36;100423.91;;;7.61;100.00
76108;BME280;64834;52.516;10.528;2023-11-21T04:13:01;100423.91;;;7.61;100.00
76108;BME280;64834;52.516;10.528;2023-11-21T04:15:27;100418.72;;;7.61;100.00
76108;BME280;64834;52.516;10.528;2023-11-21T04:17:52;100428.41;;;7.63;100.00
76108;BME280;64834;52.516;10.528;2023-11-21T04:20:17;100423.72;;;7.57;100.00
76108;BME280;64834;52.516;10.528;2023-11-21T04:22:44;100429.72;;;7.56;100.00
76108;BME280;64834;52.516;10.528;2023-11-21T04:25:10;100430.72;;;7.58;100.00
76108;BME280;64834;52.516;10.528;2023-11-21T04:27:36;100440.22;;;7.58;100.00
76108;BME280;64834;52.516;10.528;2023-11-21T04:30:02;100453.50;;;7.76;100.00
76108;BME280;64834;52.516;10.528;2023-11-21T04:32:28;100452.25;;;7.56;100.00
76108;BME280;64834;52.516;10.528;2023-11-21T04:34:53;100452.47;;;7.46;100.00
76108;BME280;64834;52.516;10.528;2023-11-21T04:37:19;100459.88;;;7.40;100.00
76108;BME280;64834;52.516;10.528;2023-11-21T04:39:44;100457.59;;;7.31;100.00
76108;BME280;64834;52.516;10.528;2023-11-21T04:42:09;100465.03;;;7.25;100.00
76108;BME280;64834;52.516;10.528;2023-11-21T04:44:35;100466.31;;;7.18;100.00
76108;BME280;64834;52.516;10.528;2023-11-21T04:47:00;100472.50;;;7.20;100.00
76108;BME280;64834;52.516;10.528;2023-11-21T04:49:25;100473.41;;;7.21;100.00
76108;BME280;64834;52.516;10.528;2023-11-21T04:51:51;100477.31;;;7.14;100.00
76108;BME280;64834;52.516;10.528;2023-11-21T04:54:16;100481.22;;;7.08;100.00
76108;BME280;64834;52.516;10.528;2023-11-21T04:56:42;100481.81;;;7.03;100.00
76108;BME280;64834;52.516;10.528;2023-11-21T04:59:07;100484.53;;;7.05;100.00
76108;BME280;64834;52.516;10.528;2023-11-21T05:01:33;100486.81;;;7.00;100.00
76108;BME280;64834;52.516;10.528;2023-11-21T05:03:58;100496.03;;;6.95;100.00
76108;BME280;64834;52.516;10.528;2023-11-21T05:06:23;100500.22;;;6.93;100.00
76108;BME280;64834;52.516;10.528;2023-11-21T05:08:49;100512.34;;;6.93;100.00
76108;BME280;64834;52.516;10.528;2023-11-21T05:11:26;100518.69;;;6.85;100.00
76108;BME280;64834;52.516;10.528;2023-11-21T05:13:52;100527.69;;;6.76;100.00
76108;BME280;64834;52.516;10.528;2023-11-21T05:16:18;100529.50;;;6.78;100.00
76108;BME280;64834;52.516;10.528;2023-11-21T05:18:44;100530.84;;;6.59;100.00
76108;BME280;64834;52.516;10.528;2023-11-21T05:21:09;100543.53;;;6.55;100.00
76108;BME280;64834;52.516;10.528;2023-11-21T05:23:35;100547.03;;;6.55;100.00
76108;BME280;64834;52.516;10.528;2023-11-21T05:26:00;100550.75;;;6.59;100.00
76108;BME280;64834;52.516;10.528;2023-11-21T05:28:25;100557.03;;;6.49;100.00
76108;BME280;64834;52.516;10.528;2023-11-21T05:30:51;100551.97;;;6.39;100.00
76108;BME280;64834;52.516;10.528;2023-11-21T05:33:16;100552.53;;;6.35;100.00
76108;BME280;64834;52.516;10.528;2023-11-21T05:35:41;100567.38;;;6.36;100.00
76108;BME280;64834;52.516;10.528;2023-11-21T05:38:07;100558.06;;;6.39;100.00
76108;BME280;64834;52.516;10.528;2023-11-21T05:40:32;100562.03;;;6.34;100.00
76108;BME280;64834;52.516;10.528;2023-11-21T05:42:58;100561.50;;;6.27;100.00
76108;BME280;64834;52.516;10.528;2023-11-21T05:45:23;100570.00;;;6.24;100.00
76108;BME280;64834;52.516;10.528;2023-11-21T05:47:48;100572.59;;;6.24;100.00
76108;BME280;64834;52.516;10.528;2023-11-21T05:50:15;100579.16;;;6.19;100.00
76108;BME280;64834;52.516;10.528;2023-11-21T05:52:42;100574.41;;;6.13;100.00
76108;BME280;64834;52.516;10.528;2023-11-21T05:55:08;100581.31;;;6.13;100.00
76108;BME280;64834;52.516;10.528;2023-11-21T05:57:35;100581.34;;;6.01;100.00
76108;BME280;64834;52.516;10.528;2023-11-21T06:00:10;100586.34;;;5.98;100.00
76108;BME280;64834;52.516;10.528;2023-11-21T06:02:38;100592.63;;;6.02;100.00
76108;BME280;64834;52.516;10.528;2023-11-21T06:05:05;100591.72;;;6.01;100.00
76108;BME280;64834;52.516;10.528;2023-11-21T06:07:31;100602.47;;;6.06;100.00
76108;BME280;64834;52.516;10.528;2023-11-21T06:09:56;100604.97;;;6.04;100.00
76108;BME280;64834;52.516;10.528;2023-11-21T06:12:22;100610.00;;;6.03;100.00
76108;BME280;64834;52.516;10.528;2023-11-21T06:14:47;100609.25;;;6.04;100.00
76108;BME280;64834;52.516;10.528;2023-11-21T06:17:13;100616.91;;;6.02;100.00
76108;BME280;64834;52.516;10.528;2023-11-21T06:19:38;100618.72;;;6.03;100.00
76108;BME280;64834;52.516;10.528;2023-11-21T06:22:03;100616.00;;;6.02;100.00
76108;BME280;64834;52.516;10.528;2023-11-21T06:24:29;100630.34;;;6.08;100.00
76108;BME280;64834;52.516;10.528;2023-11-21T06:26:54;100625.72;;;6.04;100.00
76108;BME280;64834;52.516;10.528;2023-11-21T06:29:19;100627.63;;;6.07;100.00
76108;BME280;64834;52.516;10.528;2023-11-21T06:31:45;100637.34;;;6.09;100.00
76108;BME280;64834;52.516;10.528;2023-11-21T06:34:11;100642.97;;;6.15;100.00
76108;BME280;64834;52.516;10.528;2023-11-21T06:36:37;100643.22;;;6.07;100.00
76108;BME280;64834;52.516;10.528;2023-11-21T06:39:02;100639.28;;;6.00;100.00
76108;BME280;64834;52.516;10.528;2023-11-21T06:41:32;100649.22;;;6.06;100.00
76108;BME280;64834;52.516;10.528;2023-11-21T06:43:57;100646.84;;;5.97;100.00
76108;BME280;64834;52.516;10.528;2023-11-21T06:46:24;100660.06;;;6.00;100.00
76108;BME280;64834;52.516;10.528;2023-11-21T06:48:49;100665.94;;;5.98;100.00
76108;BME280;64834;52.516;10.528;2023-11-21T06:51:14;100664.56;;;6.03;100.00
76108;BME280;64834;52.516;10.528;2023-11-21T06:53:40;100669.91;;;6.04;100.00
76108;BME280;64834;52.516;10.528;2023-11-21T06:56:15;100671.34;;;6.01;100.00
76108;BME280;64834;52.516;10.528;2023-11-21T06:58:40;100674.94;;;6.03;100.00
76108;BME280;64834;52.516;10.528;2023-11-21T07:01:06;100675.66;;;6.00;100.00
76108;BME280;64834;52.516;10.528;2023-11-21T07:03:31;100683.34;;;5.99;100.00
76108;BME280;64834;52.516;10.528;2023-11-21T07:05:56;100689.88;;;6.05;100.00
76108;BME280;64834;52.516;10.528;2023-11-21T07:08:22;100695.88;;;6.04;100.00
76108;BME280;64834;52.516;10.528;2023-11-21T07:10:47;100705.22;;;6.02;100.00
76108;BME280;64834;52.516;10.528;2023-11-21T07:13:13;100710.31;;;6.01;100.00
76108;BME280;64834;52.516;10.528;2023-11-21T07:15:38;100716.97;;;5.97;100.00
76108;BME280;64834;52.516;10.528;2023-11-21T07:18:03;100716.06;;;5.97;100.00
76108;BME280;64834;52.516;10.528;2023-11-21T07:20:29;100714.94;;;5.93;100.00
76108;BME280;64834;52.516;10.528;2023-11-21T07:22:55;100718.22;;;6.02;100.00
76108;BME280;64834;52.516;10.528;2023-11-21T07:25:21;100715.59;;;6.02;100.00
76108;BME280;64834;52.516;10.528;2023-11-21T07:27:47;100724.31;;;6.03;100.00
76108;BME280;64834;52.516;10.528;2023-11-21T07:30:12;100726.91;;;6.03;100.00
76108;BME280;64834;52.516;10.528;2023-11-21T07:32:38;100739.00;;;6.02;100.00
76108;BME280;64834;52.516;10.528;2023-11-21T07:35:04;100733.59;;;5.99;100.00
76108;BME280;64834;52.516;10.528;2023-11-21T07:37:30;100739.78;;;6.01;100.00
76108;BME280;64834;52.516;10.528;2023-11-21T07:39:55;100744.97;;;6.01;100.00
76108;BME280;64834;52.516;10.528;2023-11-21T07:42:23;100755.00;;;5.97;100.00
76108;BME280;64834;52.516;10.528;2023-11-21T07:44:49;100752.13;;;6.04;100.00
76108;BME280;64834;52.516;10.528;2023-11-21T07:47:15;100761.34;;;6.00;100.00
76108;BME280;64834;52.516;10.528;2023-11-21T07:49:40;100767.47;;;6.01;100.00
76108;BME280;64834;52.516;10.528;2023-11-21T07:52:08;100768.25;;;6.00;100.00
76108;BME280;64834;52.516;10.528;2023-11-21T07:54:34;100770.75;;;5.98;100.00
76108;BME280;64834;52.516;10.528;2023-11-21T07:57:00;100776.84;;;5.99;100.00
76108;BME280;64834;52.516;10.528;2023-11-21T07:59:26;100780.88;;;5.95;100.00
76108;BME280;64834;52.516;10.528;2023-11-21T08:01:51;100785.28;;;5.96;100.00
76108;BME280;64834;52.516;10.528;2023-11-21T08:04:16;100780.34;;;5.99;100.00
76108;BME280;64834;52.516;10.528;2023-11-21T08:06:42;100796.28;;;6.04;100.00
76108;BME280;64834;52.516;10.528;2023-11-21T08:09:07;100797.19;;;6.04;100.00
76108;BME280;64834;52.516;10.528;2023-11-21T08:11:33;100797.75;;;6.12;100.00
76108;BME280;64834;52.516;10.528;2023-11-21T08:13:59;100803.28;;;6.16;100.00
76108;BME280;64834;52.516;10.528;2023-11-21T08:16:25;100802.06;;;6.23;100.00
76108;BME280;64834;52.516;10.528;2023-11-21T08:18:50;100802.69;;;6.20;100.00
76108;BME280;64834;52.516;10.528;2023-11-21T08:21:16;100802.69;;;6.20;100.00
76108;BME280;64834;52.516;10.528;2023-11-21T08:23:41;100802.59;;;6.19;100.00
76108;BME280;64834;52.516;10.528;2023-11-21T08:26:06;100807.91;;;6.20;100.00
76108;BME280;64834;52.516;10.528;2023-11-21T08:28:32;100816.50;;;6.19;100.00
76108;BME280;64834;52.516;10.528;2023-11-21T08:30:57;100824.41;;;6.21;100.00
76108;BME280;64834;52.516;10.528;2023-11-21T08:33:22;100821.00;;;6.22;100.00
76108;BME280;64834;52.516;10.528;2023-11-21T08:35:48;100822.72;;;6.10;100.00
76108;BME280;64834;52.516;10.528;2023-11-21T08:38:14;100831.06;;;6.17;100.00
76108;BME280;64834;52.516;10.528;2023-11-21T08:40:39;100833.41;;;6.14;100.00
76108;BME280;64834;52.516;10.528;2023-11-21T08:43:05;100843.28;;;6.18;100.00
76108;BME280;64834;52.516;10.528;2023-11-21T08:45:31;100841.25;;;6.26;100.00
76108;BME280;64834;52.516;10.528;2023-11-21T08:47:57;100844.41;;;6.34;100.00
76108;BME280;64834;52.516;10.528;2023-11-21T08:50:23;100841.25;;;6.38;100.00
76108;BME280;64834;52.516;10.528;2023-11-21T08:52:48;100855.94;;;6.37;100.00
76108;BME280;64834;52.516;10.528;2023-11-21T08:55:14;100847.91;;;6.46;100.00
76108;BME280;64834;52.516;10.528;2023-11-21T08:57:40;100856.50;;;6.33;100.00
76108;BME280;64834;52.516;10.528;2023-11-21T09:00:07;100859.78;;;6.42;100.00
76108;BME280;64834;52.516;10.528;2023-11-21T09:02:37;100860.34;;;6.38;100.00
76108;BME280;64834;52.516;10.528;2023-11-21T09:05:03;100867.44;;;6.41;100.00
76108;BME280;64834;52.516;10.528;2023-11-21T09:07:29;100870.19;;;6.42;100.00
76108;BME280;64834;52.516;10.528;2023-11-21T09:09:55;100876.84;;;6.39;100.00
76108;BME280;64834;52.516;10.528;2023-11-21T09:12:20;100863.97;;;6.29;100.00
76108;BME280;64834;52.516;10.528;2023-11-21T09:14:46;100875.81;;;6.25;100.00
76108;BME280;64834;52.516;10.528;2023-11-21T09:17:11;100869.50;;;6.33;100.00
76108;BME280;64834;52.516;10.528;2023-11-21T09:19:40;100868.81;;;6.24;100.00
76108;BME280;64834;52.516;10.528;2023-11-21T09:22:06;100873.09;;;6.24;100.00
76108;BME280;64834;52.516;10.528;2023-11-21T09:24:34;100866.56;;;6.40;100.00
76108;BME280;64834;52.516;10.528;2023-11-21T09:27:00;100879.34;;;6.49;100.00
76108;BME280;64834;52.516;10.528;2023-11-21T09:29:28;100885.91;;;6.56;100.00
76108;BME280;64834;52.516;10.528;2023-11-21T09:31:54;100891.09;;;6.56;100.00
76108;BME280;64834;52.516;10.528;2023-11-21T09:34:20;100891.44;;;6.48;100.00
76108;BME280;64834;52.516;10.528;2023-11-21T09:36:47;100903.53;;;6.48;100.00
76108;BME280;64834;52.516;10.528;2023-11-21T09:39:13;100904.31;;;6.47;100.00
76108;BME280;64834;52.516;10.528;2023-11-21T09:41:46;100906.78;;;6.45;100.00
76108;BME280;64834;52.516;10.528;2023-11-21T09:44:13;100911.63;;;6.41;100.00
76108;BME280;64834;52.516;10.528;2023-11-21T09:46:42;100908.75;;;6.48;100.00
76108;BME280;64834;52.516;10.528;2023-11-21T09:49:09;100915.19;;;6.41;100.00
76108;BME280;64834;52.516;10.528;2023-11-21T09:51:39;100929.19;;;6.43;100.00
76108;BME280;64834;52.516;10.528;2023-11-21T09:54:08;100939.59;;;6.43;100.00
76108;BME280;64834;52.516;10.528;2023-11-21T09:56:34;100935.97;;;6.53;100.00
76108;BME280;64834;52.516;10.528;2023-11-21T09:59:01;100940.94;;;6.50;100.00
76108;BME280;64834;52.516;10.528;2023-11-21T10:01:33;100942.06;;;6.54;100.00
76108;BME280;64834;52.516;10.528;2023-11-21T10:04:00;100941.16;;;6.53;100.00
76108;BME280;64834;52.516;10.528;2023-11-21T10:06:26;100941.16;;;6.41;100.00
76108;BME280;64834;52.516;10.528;2023-11-21T10:08:53;100948.38;;;6.45;100.00
76108;BME280;64834;52.516;10.528;2023-11-21T10:11:24;100948.38;;;6.45;100.00
76108;BME280;64834;52.516;10.528;2023-11-21T10:13:52;100951.88;;;6.46;100.00
76108;BME280;64834;52.516;10.528;2023-11-21T10:16:19;100948.63;;;6.48;100.00
76108;BME280;64834;52.516;10.528;2023-11-21T10:18:48;100950.66;;;6.53;100.00
76108;BME280;64834;52.516;10.528;2023-11-21T10:21:15;100954.31;;;6.55;100.00
76108;BME280;64834;52.516;10.528;2023-11-21T10:23:40;100966.25;;;6.53;100.00
76108;BME280;64834;52.516;10.528;2023-11-21T10:26:09;100966.41;;;6.54;99.50
76108;BME280;64834;52.516;10.528;2023-11-21T10:28:41;100970.56;;;6.64;99.19
76108;BME280;64834;52.516;10.528;2023-11-21T10:31:07;100982.00;;;6.66;100.00
76108;BME280;64834;52.516;10.528;2023-11-21T10:33:32;100979.84;;;6.48;100.00
76108;BME280;64834;52.516;10.528;2023-11-21T10:35:58;100968.31;;;6.57;99.40
76108;BME280;64834;52.516;10.528;2023-11-21T10:38:24;100970.81;;;6.55;99.55
76108;BME280;64834;52.516;10.528;2023-11-21T10:40:52;100972.72;;;6.58;98.56
76108;BME280;64834;52.516;10.528;2023-11-21T10:43:18;100976.22;;;6.58;98.01
76108;BME280;64834;52.516;10.528;2023-11-21T10:45:43;100978.16;;;6.61;97.88
76108;BME280;64834;52.516;10.528;2023-11-21T10:48:10;100979.84;;;6.60;98.97
76108;BME280;64834;52.516;10.528;2023-11-21T10:50:38;100985.38;;;6.65;99.79
76108;BME280;64834;52.516;10.528;2023-11-21T10:53:04;100989.72;;;6.76;99.75
76108;BME280;64834;52.516;10.528;2023-11-21T10:55:31;100983.81;;;6.67;98.43
76108;BME280;64834;52.516;10.528;2023-11-21T10:57:58;100984.59;;;6.66;99.91
76108;BME280;64834;52.516;10.528;2023-11-21T11:00:27;100995.13;;;6.67;99.27
76108;BME280;64834;52.516;10.528;2023-11-21T11:02:52;100992.09;;;6.85;99.26
76108;BME280;64834;52.516;10.528;2023-11-21T11:08:12;100992.31;;;6.88;95.81
76108;BME280;64834;52.516;10.528;2023-11-21T11:10:38;100997.28;;;6.85;97.19
76108;BME280;64834;52.516;10.528;2023-11-21T11:13:04;100993.13;;;6.98;97.00
76108;BME280;64834;52.516;10.528;2023-11-21T11:15:31;101001.72;;;6.86;96.02
76108;BME280;64834;52.516;10.528;2023-11-21T11:17:57;100998.00;;;7.06;96.35
76108;BME280;64834;52.516;10.528;2023-11-21T11:20:24;101007.25;;;7.14;97.47
76108;BME280;64834;52.516;10.528;2023-11-21T11:23:07;101003.41;;;7.20;94.53
76108;BME280;64834;52.516;10.528;2023-11-21T11:28:27;101007.28;;;7.25;93.49
76108;BME280;64834;52.516;10.528;2023-11-21T11:31:18;101014.28;;;7.15;93.46
76108;BME280;64834;52.516;10.528;2023-11-21T11:34:01;101011.56;;;7.13;91.30
76108;BME280;64834;52.516;10.528;2023-11-21T11:36:42;101007.28;;;7.25;92.83
76108;BME280;64834;52.516;10.528;2023-11-21T11:39:41;101010.41;;;7.45;89.10
76108;BME280;64834;52.516;10.528;2023-11-21T11:42:15;101016.72;;;7.60;89.44
76108;BME280;64834;52.516;10.528;2023-11-21T11:50:01;101032.41;;;7.37;85.26
76108;BME280;64834;52.516;10.528;2023-11-21T11:52:46;101027.28;;;7.26;86.04
76108;BME280;64834;52.516;10.528;2023-11-21T11:55:13;101025.25;;;7.34;87.24
76108;BME280;64834;52.516;10.528;2023-11-21T11:57:41;101041.56;;;7.43;88.06
76108;BME280;64834;52.516;10.528;2023-11-21T12:00:16;101036.34;;;7.43;86.78
76108;BME280;64834;52.516;10.528;2023-11-21T12:02:49;101042.34;;;7.30;88.65
76108;BME280;64834;52.516;10.528;2023-11-21T12:05:16;101047.78;;;7.34;90.43
76108;BME280;64834;52.516;10.528;2023-11-21T12:07:48;101051.16;;;7.21;90.17
76108;BME280;64834;52.516;10.528;2023-11-21T12:10:18;101049.69;;;7.01;91.32
76108;BME280;64834;52.516;10.528;2023-11-21T12:13:07;101049.13;;;6.93;89.98
76108;BME280;64834;52.516;10.528;2023-11-21T12:15:34;101051.16;;;6.86;90.72
76108;BME280;64834;52.516;10.528;2023-11-21T12:18:00;101057.00;;;6.83;88.91
76108;BME280;64834;52.516;10.528;2023-11-21T12:20:26;101070.38;;;6.88;89.60
76108;BME280;64834;52.516;10.528;2023-11-21T12:22:56;101058.81;;;6.84;89.72
76108;BME280;64834;52.516;10.528;2023-11-21T12:25:28;101069.22;;;6.84;90.91
76108;BME280;64834;52.516;10.528;2023-11-21T12:27:55;101083.47;;;6.89;90.36
76108;BME280;64834;52.516;10.528;2023-11-21T12:30:22;101083.47;;;6.89;90.17
76108;BME280;64834;52.516;10.528;2023-11-21T12:32:52;101084.72;;;6.83;89.91
76108;BME280;64834;52.516;10.528;2023-11-21T12:35:19;101093.81;;;6.66;91.51
76108;BME280;64834;52.516;10.528;2023-11-21T12:37:46;101093.22;;;6.58;91.22
76108;BME280;64834;52.516;10.528;2023-11-21T12:40:13;101097.16;;;6.53;91.35
76108;BME280;64834;52.516;10.528;2023-11-21T12:42:48;101099.41;;;6.48;91.85
76108;BME280;64834;52.516;10.528;2023-11-21T12:47:48;101105.09;;;6.55;92.66
76108;BME280;64834;52.516;10.528;2023-11-21T12:50:23;101107.28;;;6.60;92.07
76108;BME280;64834;52.516;10.528;2023-11-21T12:52:51;101101.03;;;6.58;91.42
76108;BME280;64834;52.516;10.528;2023-11-21T12:55:21;101102.50;;;6.55;92.29